sensor_id;sensor_type;location;lat;lon;timestamp;pressure;altitude;pressure_sealevel;temperature;humidity
41234;BME280;26968;42.686;23.352;2023-05-24T00:01:15;95026.19;;;16.34;59.01
41234;BME280;26968;42.686;23.352;2023-05-24T00:03:51;95026.50;;;16.33;59.21
41234;BME280;26968;42.686;23.352;2023-05-24T00:06:20;95038.97;;;16.37;59.03
41234;BME280;26968;42.686;23.352;2023-05-24T00:08:46;95055.03;;;16.46;59.53
41234;BME280;26968;42.686;23.352;2023-05-24T00:11:11;95001.94;;;16.13;59.47
41234;BME280;26968;42.686;23.352;2023-05-24T00:13:37;95029.00;;;16.20;59.58
41234;BME280;26968;42.686;23.352;2023-05-24T00:16:02;94937.00;;;15.65;59.53
41234;BME280;26968;42.686;23.352;2023-05-24T00:18:28;95040.53;;;16.30;59.57
41234;BME280;26968;42.686;23.352;2023-05-24T00:20:56;95044.81;;;16.39;59.73
41234;BME280;26968;42.686;23.352;2023-05-24T00:23:23;95004.28;;;16.06;59.89
41234;BME280;26968;42.686;23.352;2023-05-24T00:25:50;95012.94;;;16.12;59.96
41234;BME280;26968;42.686;23.352;2023-05-24T00:28:15;95013.56;;;16.17;59.89
41234;BME280;26968;42.686;23.352;2023-05-24T00:30:41;95054.84;;;16.42;59.81
41234;BME280;26968;42.686;23.352;2023-05-24T00:33:06;95015.13;;;16.10;59.80
41234;BME280;26968;42.686;23.352;2023-05-24T00:35:31;95016.84;;;15.97;58.95
41234;BME280;26968;42.686;23.352;2023-05-24T00:37:57;94947.38;;;15.58;59.47
41234;BME280;26968;42.686;23.352;2023-05-24T00:40:23;95004.13;;;16.11;59.50
41234;BME280;26968;42.686;23.352;2023-05-24T00:42:48;94957.81;;;15.76;59.08
41234;BME280;26968;42.686;23.352;2023-05-24T00:45:14;94972.44;;;15.88;59.10
41234;BME280;26968;42.686;23.352;2023-05-24T00:47:40;94984.44;;;15.99;59.16
41234;BME280;26968;42.686;23.352;2023-05-24T00:50:07;95041.28;;;16.21;59.41
41234;BME280;26968;42.686;23.352;2023-05-24T00:52:34;95048.22;;;16.23;59.51
41234;BME280;26968;42.686;23.352;2023-05-24T00:55:01;94993.84;;;15.88;59.78
41234;BME280;26968;42.686;23.352;2023-05-24T00:57:26;95031.34;;;16.05;59.75
41234;BME280;26968;42.686;23.352;2023-05-24T00:59:54;95018.06;;;15.82;60.13
41234;BME280;26968;42.686;23.352;2023-05-24T01:02:20;95045.97;;;15.99;60.17
41234;BME280;26968;42.686;23.352;2023-05-24T01:04:46;94969.00;;;15.48;60.01
41234;BME280;26968;42.686;23.352;2023-05-24T01:09:46;95044.97;;;15.86;60.51
41234;BME280;26968;42.686;23.352;2023-05-24T01:17:54;95032.00;;;15.62;60.77
41234;BME280;26968;42.686;23.352;2023-05-24T01:20:27;95057.78;;;15.67;60.91
41234;BME280;26968;42.686;23.352;2023-05-24T01:28:11;95053.81;;;15.56;61.04
41234;BME280;26968;42.686;23.352;2023-05-24T01:30:40;95067.19;;;15.64;61.28
41234;BME280;26968;42.686;23.352;2023-05-24T01:33:06;95045.41;;;15.49;61.18
41234;BME280;26968;42.686;23.352;2023-05-24T01:35:32;95033.09;;;15.39;61.45
41234;BME280;26968;42.686;23.352;2023-05-24T01:38:04;95062.28;;;15.58;61.53
41234;BME280;26968;42.686;23.352;2023-05-24T01:40:29;95038.16;;;15.49;61.19
41234;BME280;26968;42.686;23.352;2023-05-24T01:42:59;94999.06;;;15.22;61.15
41234;BME280;26968;42.686;23.352;2023-05-24T01:48:33;95055.69;;;15.55;61.22
41234;BME280;26968;42.686;23.352;2023-05-24T01:50:59;95041.78;;;15.44;61.44
41234;BME280;26968;42.686;23.352;2023-05-24T01:53:31;95034.63;;;15.31;61.38
41234;BME280;26968;42.686;23.352;2023-05-24T01:56:00;95060.00;;;15.42;61.37
41234;BME280;26968;42.686;23.352;2023-05-24T01:58:28;95041.91;;;15.39;61.82
41234;BME280;26968;42.686;23.352;2023-05-24T02:00:54;95032.72;;;15.23;61.79
41234;BME280;26968;42.686;23.352;2023-05-24T02:03:20;95057.69;;;15.27;62.03
41234;BME280;26968;42.686;23.352;2023-05-24T02:05:46;95022.84;;;15.01;62.03
41234;BME280;26968;42.686;23.352;2023-05-24T02:08:12;95056.25;;;15.21;62.24
41234;BME280;26968;42.686;23.352;2023-05-24T02:10:38;95003.88;;;14.89;62.15
41234;BME280;26968;42.686;23.352;2023-05-24T02:13:05;95002.94;;;14.85;62.01
41234;BME280;26968;42.686;23.352;2023-05-24T02:15:31;95021.25;;;14.78;62.31
41234;BME280;26968;42.686;23.352;2023-05-24T02:17:57;95005.78;;;14.66;62.61
41234;BME280;26968;42.686;23.352;2023-05-24T02:20:22;95021.84;;;14.75;62.17
41234;BME280;26968;42.686;23.352;2023-05-24T02:22:48;94990.44;;;14.36;63.29
41234;BME280;26968;42.686;23.352;2023-05-24T02:25:14;95007.41;;;14.54;63.15
41234;BME280;26968;42.686;23.352;2023-05-24T02:27:39;95040.75;;;14.79;63.06
41234;BME280;26968;42.686;23.352;2023-05-24T02:30:06;95040.41;;;14.80;63.22
41234;BME280;26968;42.686;23.352;2023-05-24T02:32:32;95022.06;;;14.65;62.96
41234;BME280;26968;42.686;23.352;2023-05-24T02:34:59;95031.25;;;14.73;63.15
41234;BME280;26968;42.686;23.352;2023-05-24T02:37:26;94995.94;;;14.53;63.21
41234;BME280;26968;42.686;23.352;2023-05-24T02:39:51;94994.84;;;14.54;62.89
41234;BME280;26968;42.686;23.352;2023-05-24T02:42:17;95011.91;;;14.67;63.01
41234;BME280;26968;42.686;23.352;2023-05-24T02:44:42;95039.22;;;14.86;63.33
41234;BME280;26968;42.686;23.352;2023-05-24T02:47:12;95041.91;;;14.86;63.42
41234;BME280;26968;42.686;23.352;2023-05-24T02:49:37;95047.53;;;14.85;63.52
41234;BME280;26968;42.686;23.352;2023-05-24T02:52:03;95037.63;;;14.85;63.37
41234;BME280;26968;42.686;23.352;2023-05-24T02:54:29;94999.56;;;14.57;63.43
41234;BME280;26968;42.686;23.352;2023-05-24T02:56:54;95030.53;;;14.81;63.35
41234;BME280;26968;42.686;23.352;2023-05-24T02:59:21;95046.31;;;14.91;63.19
41234;BME280;26968;42.686;23.352;2023-05-24T03:01:47;95038.53;;;14.81;63.55
41234;BME280;26968;42.686;23.352;2023-05-24T03:04:12;95039.66;;;14.80;63.42
41234;BME280;26968;42.686;23.352;2023-05-24T03:06:38;95019.91;;;14.67;63.45
41234;BME280;26968;42.686;23.352;2023-05-24T03:09:03;95052.44;;;14.69;63.39
41234;BME280;26968;42.686;23.352;2023-05-24T03:11:30;95026.16;;;14.62;63.34
41234;BME280;26968;42.686;23.352;2023-05-24T03:13:55;95049.34;;;14.76;63.26
41234;BME280;26968;42.686;23.352;2023-05-24T03:16:21;95052.66;;;14.81;63.03
41234;BME280;26968;42.686;23.352;2023-05-24T03:18:46;95063.06;;;14.83;63.30
41234;BME280;26968;42.686;23.352;2023-05-24T03:21:14;95041.91;;;14.73;63.06
41234;BME280;26968;42.686;23.352;2023-05-24T03:23:40;95035.63;;;14.68;63.41
41234;BME280;26968;42.686;23.352;2023-05-24T03:26:06;95040.75;;;14.65;63.54
41234;BME280;26968;42.686;23.352;2023-05-24T03:28:31;95048.84;;;14.74;63.42
41234;BME280;26968;42.686;23.352;2023-05-24T03:30:58;95037.00;;;14.66;63.58
41234;BME280;26968;42.686;23.352;2023-05-24T03:33:23;95037.50;;;14.68;63.63
41234;BME280;26968;42.686;23.352;2023-05-24T03:35:49;95029.91;;;14.61;63.45
41234;BME280;26968;42.686;23.352;2023-05-24T03:38:14;95074.88;;;14.90;63.33
41234;BME280;26968;42.686;23.352;2023-05-24T03:40:40;95064.94;;;14.82;63.55
41234;BME280;26968;42.686;23.352;2023-05-24T03:43:05;95065.59;;;14.88;63.36
41234;BME280;26968;42.686;23.352;2023-05-24T03:45:31;95071.63;;;14.93;63.37
41234;BME280;26968;42.686;23.352;2023-05-24T03:47:56;95065.38;;;14.98;62.78
41234;BME280;26968;42.686;23.352;2023-05-24T03:50:22;95070.56;;;15.03;63.19
41234;BME280;26968;42.686;23.352;2023-05-24T03:52:48;95077.56;;;15.13;62.94
41234;BME280;26968;42.686;23.352;2023-05-24T03:55:15;95075.69;;;15.13;63.12
41234;BME280;26968;42.686;23.352;2023-05-24T03:57:40;95078.06;;;15.15;62.93
41234;BME280;26968;42.686;23.352;2023-05-24T04:00:07;95066.81;;;15.04;62.68
41234;BME280;26968;42.686;23.352;2023-05-24T04:02:34;95034.13;;;14.76;62.56
41234;BME280;26968;42.686;23.352;2023-05-24T04:05:03;95078.13;;;15.23;62.42
41234;BME280;26968;42.686;23.352;2023-05-24T04:07:28;95055.69;;;15.11;61.75
41234;BME280;26968;42.686;23.352;2023-05-24T04:09:58;95034.41;;;14.97;61.21
41234;BME280;26968;42.686;23.352;2023-05-24T04:12:23;95075.16;;;15.25;61.21
41234;BME280;26968;42.686;23.352;2023-05-24T04:14:49;95076.09;;;15.29;61.07
41234;BME280;26968;42.686;23.352;2023-05-24T04:17:16;95088.13;;;15.40;61.40
41234;BME280;26968;42.686;23.352;2023-05-24T04:19:41;95053.22;;;15.14;61.42
41234;BME280;26968;42.686;23.352;2023-05-24T04:22:06;95056.59;;;15.28;61.48
41234;BME280;26968;42.686;23.352;2023-05-24T04:24:32;95061.41;;;15.40;61.19
41234;BME280;26968;42.686;23.352;2023-05-24T04:26:57;95044.53;;;15.31;61.04
41234;BME280;26968;42.686;23.352;2023-05-24T04:29:23;95066.97;;;15.52;60.98
41234;BME280;26968;42.686;23.352;2023-05-24T04:31:51;95060.34;;;15.50;61.04
41234;BME280;26968;42.686;23.352;2023-05-24T04:34:17;95032.06;;;15.26;61.08
41234;BME280;26968;42.686;23.352;2023-05-24T04:36:46;95074.75;;;15.62;61.08
41234;BME280;26968;42.686;23.352;2023-05-24T04:39:14;95066.84;;;15.57;60.98
41234;BME280;26968;42.686;23.352;2023-05-24T04:41:39;95072.09;;;15.62;60.56
41234;BME280;26968;42.686;23.352;2023-05-24T04:44:05;95070.50;;;15.61;60.73
41234;BME280;26968;42.686;23.352;2023-05-24T04:46:31;95060.59;;;15.62;60.51
41234;BME280;26968;42.686;23.352;2023-05-24T04:49:00;95078.44;;;15.75;59.90
41234;BME280;26968;42.686;23.352;2023-05-24T04:51:26;95088.06;;;15.85;59.80
41234;BME280;26968;42.686;23.352;2023-05-24T04:53:52;95079.56;;;15.82;59.95
41234;BME280;26968;42.686;23.352;2023-05-24T04:56:17;95108.91;;;16.05;60.20
41234;BME280;26968;42.686;23.352;2023-05-24T04:58:43;95095.03;;;15.94;60.23
41234;BME280;26968;42.686;23.352;2023-05-24T05:01:09;95079.41;;;15.88;60.16
41234;BME280;26968;42.686;23.352;2023-05-24T05:03:35;95102.44;;;15.97;59.68
41234;BME280;26968;42.686;23.352;2023-05-24T05:06:00;95092.72;;;16.01;59.55
41234;BME280;26968;42.686;23.352;2023-05-24T05:08:26;95086.38;;;15.97;59.91
41234;BME280;26968;42.686;23.352;2023-05-24T05:10:51;95117.59;;;16.19;59.79
41234;BME280;26968;42.686;23.352;2023-05-24T05:13:17;95116.03;;;16.18;59.76
41234;BME280;26968;42.686;23.352;2023-05-24T05:15:42;95088.16;;;16.02;59.26
41234;BME280;26968;42.686;23.352;2023-05-24T05:18:08;95121.09;;;16.28;59.15
41234;BME280;26968;42.686;23.352;2023-05-24T05:20:34;95090.69;;;16.15;59.16
41234;BME280;26968;42.686;23.352;2023-05-24T05:22:59;95122.84;;;16.33;59.15
41234;BME280;26968;42.686;23.352;2023-05-24T05:25:25;95085.06;;;16.17;59.01
41234;BME280;26968;42.686;23.352;2023-05-24T05:27:50;95088.50;;;16.26;58.17
41234;BME280;26968;42.686;23.352;2023-05-24T05:30:16;95042.66;;;16.02;58.04
41234;BME280;26968;42.686;23.352;2023-05-24T05:32:41;95118.63;;;16.49;58.03
41234;BME280;26968;42.686;23.352;2023-05-24T05:35:07;95107.47;;;16.47;57.87
41234;BME280;26968;42.686;23.352;2023-05-24T05:37:32;95095.03;;;16.51;57.38
41234;BME280;26968;42.686;23.352;2023-05-24T05:39:58;95093.16;;;16.51;57.28
41234;BME280;26968;42.686;23.352;2023-05-24T05:42:23;95098.81;;;16.58;57.09
41234;BME280;26968;42.686;23.352;2023-05-24T05:44:49;95123.59;;;16.73;57.22
41234;BME280;26968;42.686;23.352;2023-05-24T05:47:14;95121.41;;;16.83;56.72
41234;BME280;26968;42.686;23.352;2023-05-24T05:49:40;95107.69;;;16.68;56.94
41234;BME280;26968;42.686;23.352;2023-05-24T05:52:05;95111.31;;;16.72;56.42
41234;BME280;26968;42.686;23.352;2023-05-24T05:54:31;95093.31;;;16.55;56.57
41234;BME280;26968;42.686;23.352;2023-05-24T05:56:56;95122.66;;;16.94;56.22
41234;BME280;26968;42.686;23.352;2023-05-24T05:59:22;95122.84;;;16.98;56.14
41234;BME280;26968;42.686;23.352;2023-05-24T06:01:48;95104.38;;;16.79;55.91
41234;BME280;26968;42.686;23.352;2023-05-24T06:04:17;95118.59;;;16.97;56.19
41234;BME280;26968;42.686;23.352;2023-05-24T06:06:42;95132.59;;;17.03;56.07
41234;BME280;26968;42.686;23.352;2023-05-24T06:09:15;95129.13;;;17.11;55.94
41234;BME280;26968;42.686;23.352;2023-05-24T06:11:41;95096.22;;;16.93;56.27
41234;BME280;26968;42.686;23.352;2023-05-24T06:14:11;95123.94;;;17.14;56.20
41234;BME280;26968;42.686;23.352;2023-05-24T06:16:37;95059.66;;;16.80;55.75
41234;BME280;26968;42.686;23.352;2023-05-24T06:19:07;95086.44;;;16.88;56.13
41234;BME280;26968;42.686;23.352;2023-05-24T06:21:32;95096.84;;;17.07;55.85
41234;BME280;26968;42.686;23.352;2023-05-24T06:24:00;95111.50;;;16.92;56.19
41234;BME280;26968;42.686;23.352;2023-05-24T06:26:26;95142.53;;;17.28;55.67
41234;BME280;26968;42.686;23.352;2023-05-24T06:28:52;95119.38;;;17.15;55.95
41234;BME280;26968;42.686;23.352;2023-05-24T06:31:17;95131.16;;;17.40;55.61
41234;BME280;26968;42.686;23.352;2023-05-24T06:33:43;95094.78;;;17.13;55.94
41234;BME280;26968;42.686;23.352;2023-05-24T06:36:08;95128.03;;;17.38;55.93
41234;BME280;26968;42.686;23.352;2023-05-24T06:38:34;95129.75;;;17.51;55.57
41234;BME280;26968;42.686;23.352;2023-05-24T06:41:00;95108.78;;;17.44;55.61
41234;BME280;26968;42.686;23.352;2023-05-24T06:43:26;95111.78;;;17.43;55.62
41234;BME280;26968;42.686;23.352;2023-05-24T06:45:51;95128.34;;;17.62;55.17
41234;BME280;26968;42.686;23.352;2023-05-24T06:48:17;95123.59;;;17.76;54.90
41234;BME280;26968;42.686;23.352;2023-05-24T06:50:42;95107.81;;;17.74;55.03
41234;BME280;26968;42.686;23.352;2023-05-24T06:53:10;95125.78;;;17.74;55.05
41234;BME280;26968;42.686;23.352;2023-05-24T06:55:35;95080.53;;;17.55;54.65
41234;BME280;26968;42.686;23.352;2023-05-24T06:58:01;95116.25;;;17.94;54.33
41234;BME280;26968;42.686;23.352;2023-05-24T07:00:27;95131.19;;;18.12;53.99
41234;BME280;26968;42.686;23.352;2023-05-24T07:02:52;95100.28;;;18.06;53.81
41234;BME280;26968;42.686;23.352;2023-05-24T07:05:18;95124.03;;;18.25;53.55
41234;BME280;26968;42.686;23.352;2023-05-24T07:07:43;95093.16;;;18.10;53.25
41234;BME280;26968;42.686;23.352;2023-05-24T07:10:10;95074.00;;;17.91;53.96
41234;BME280;26968;42.686;23.352;2023-05-24T07:12:39;95060.53;;;17.99;53.42
41234;BME280;26968;42.686;23.352;2023-05-24T07:15:05;95039.34;;;17.77;53.29
41234;BME280;26968;42.686;23.352;2023-05-24T07:17:31;95110.78;;;18.20;53.69
41234;BME280;26968;42.686;23.352;2023-05-24T07:19:56;95085.91;;;18.02;54.24
41234;BME280;26968;42.686;23.352;2023-05-24T07:22:22;95097.28;;;18.07;53.74
41234;BME280;26968;42.686;23.352;2023-05-24T07:24:49;95091.53;;;18.18;53.71
41234;BME280;26968;42.686;23.352;2023-05-24T07:27:15;95064.69;;;18.18;53.40
41234;BME280;26968;42.686;23.352;2023-05-24T07:29:41;95077.47;;;18.21;53.55
41234;BME280;26968;42.686;23.352;2023-05-24T07:32:06;95109.63;;;18.38;53.00
41234;BME280;26968;42.686;23.352;2023-05-24T07:34:32;95125.31;;;18.57;53.13
41234;BME280;26968;42.686;23.352;2023-05-24T07:36:59;95096.13;;;18.46;52.73
41234;BME280;26968;42.686;23.352;2023-05-24T07:39:25;95078.22;;;18.30;52.60
41234;BME280;26968;42.686;23.352;2023-05-24T07:41:53;95079.59;;;18.36;53.40
41234;BME280;26968;42.686;23.352;2023-05-24T07:44:18;95117.84;;;18.62;53.19
41234;BME280;26968;42.686;23.352;2023-05-24T07:46:44;95112.19;;;18.55;52.50
41234;BME280;26968;42.686;23.352;2023-05-24T07:49:10;95132.44;;;18.52;53.11
41234;BME280;26968;42.686;23.352;2023-05-24T07:51:35;95110.78;;;18.58;51.11
41234;BME280;26968;42.686;23.352;2023-05-24T07:54:01;95123.91;;;18.80;51.87
41234;BME280;26968;42.686;23.352;2023-05-24T07:56:26;95072.53;;;18.61;52.85
41234;BME280;26968;42.686;23.352;2023-05-24T07:58:52;95108.66;;;18.93;53.63
41234;BME280;26968;42.686;23.352;2023-05-24T08:01:21;95038.03;;;18.42;52.24
41234;BME280;26968;42.686;23.352;2023-05-24T08:03:46;95076.56;;;18.75;51.68
41234;BME280;26968;42.686;23.352;2023-05-24T08:06:12;95103.41;;;18.96;50.56
41234;BME280;26968;42.686;23.352;2023-05-24T08:08:38;95079.03;;;19.01;50.03
41234;BME280;26968;42.686;23.352;2023-05-24T08:11:04;95098.16;;;19.20;50.04
41234;BME280;26968;42.686;23.352;2023-05-24T08:13:30;95097.41;;;19.32;48.95
41234;BME280;26968;42.686;23.352;2023-05-24T08:15:55;95012.25;;;18.91;49.53
41234;BME280;26968;42.686;23.352;2023-05-24T08:18:22;95056.25;;;19.19;50.57
41234;BME280;26968;42.686;23.352;2023-05-24T08:20:47;95067.50;;;19.34;50.43
41234;BME280;26968;42.686;23.352;2023-05-24T08:23:13;95111.63;;;19.53;49.25
41234;BME280;26968;42.686;23.352;2023-05-24T08:25:38;95098.66;;;19.55;48.59
41234;BME280;26968;42.686;23.352;2023-05-24T08:28:05;95077.28;;;19.59;46.66
41234;BME280;26968;42.686;23.352;2023-05-24T08:30:30;95069.75;;;19.52;44.45
41234;BME280;26968;42.686;23.352;2023-05-24T08:32:56;95022.69;;;19.25;41.13
41234;BME280;26968;42.686;23.352;2023-05-24T08:35:22;95025.59;;;19.33;44.27
41234;BME280;26968;42.686;23.352;2023-05-24T08:37:48;95083.69;;;19.79;44.56
41234;BME280;26968;42.686;23.352;2023-05-24T08:40:14;95117.06;;;19.98;42.79
41234;BME280;26968;42.686;23.352;2023-05-24T08:42:40;95107.25;;;19.94;42.81
41234;BME280;26968;42.686;23.352;2023-05-24T08:45:13;95105.25;;;20.03;42.88
41234;BME280;26968;42.686;23.352;2023-05-24T08:47:39;95075.97;;;20.01;43.65
41234;BME280;26968;42.686;23.352;2023-05-24T08:50:05;95107.06;;;20.23;43.31
41234;BME280;26968;42.686;23.352;2023-05-24T08:52:31;95067.47;;;20.12;42.87
41234;BME280;26968;42.686;23.352;2023-05-24T08:54:58;95087.31;;;20.31;42.05
41234;BME280;26968;42.686;23.352;2023-05-24T08:57:26;95066.25;;;20.21;41.59
41234;BME280;26968;42.686;23.352;2023-05-24T08:59:52;95105.31;;;20.52;41.13
41234;BME280;26968;42.686;23.352;2023-05-24T09:02:20;95075.59;;;20.36;38.90
41234;BME280;26968;42.686;23.352;2023-05-24T09:04:48;95094.41;;;20.60;38.21
41234;BME280;26968;42.686;23.352;2023-05-24T09:07:17;95095.06;;;20.69;39.04
41234;BME280;26968;42.686;23.352;2023-05-24T09:09:46;95092.72;;;20.80;40.69
41234;BME280;26968;42.686;23.352;2023-05-24T09:12:15;95070.81;;;20.69;41.43
41234;BME280;26968;42.686;23.352;2023-05-24T09:14:45;95098.75;;;20.89;40.43
41234;BME280;26968;42.686;23.352;2023-05-24T09:17:13;95080.44;;;20.95;40.72
41234;BME280;26968;42.686;23.352;2023-05-24T09:19:44;95078.97;;;20.97;41.35
41234;BME280;26968;42.686;23.352;2023-05-24T09:22:13;95070.44;;;20.95;39.01
41234;BME280;26968;42.686;23.352;2023-05-24T09:24:42;95096.44;;;21.15;38.25
41234;BME280;26968;42.686;23.352;2023-05-24T09:27:08;95072.50;;;21.14;38.53
41234;BME280;26968;42.686;23.352;2023-05-24T09:29:35;95091.91;;;21.32;39.94
41234;BME280;26968;42.686;23.352;2023-05-24T09:32:01;95089.56;;;21.30;37.62
41234;BME280;26968;42.686;23.352;2023-05-24T09:34:28;95089.06;;;21.40;38.15
41234;BME280;26968;42.686;23.352;2023-05-24T09:36:54;95073.66;;;21.41;39.97
41234;BME280;26968;42.686;23.352;2023-05-24T09:39:20;95088.13;;;21.48;37.64
41234;BME280;26968;42.686;23.352;2023-05-24T09:41:51;95075.75;;;21.91;40.71
41234;BME280;26968;42.686;23.352;2023-05-24T09:44:24;95072.66;;;22.71;37.42
41234;BME280;26968;42.686;23.352;2023-05-24T09:46:53;95028.94;;;23.62;37.11
41234;BME280;26968;42.686;23.352;2023-05-24T09:49:25;95078.31;;;24.95;33.98
41234;BME280;26968;42.686;23.352;2023-05-24T09:51:51;95088.00;;;25.90;33.08
41234;BME280;26968;42.686;23.352;2023-05-24T09:54:16;95080.13;;;26.66;30.58
41234;BME280;26968;42.686;23.352;2023-05-24T09:56:46;95074.41;;;27.57;28.13
41234;BME280;26968;42.686;23.352;2023-05-24T09:59:12;95087.75;;;27.91;27.37
41234;BME280;26968;42.686;23.352;2023-05-24T10:01:38;95083.16;;;28.34;27.15
41234;BME280;26968;42.686;23.352;2023-05-24T10:04:04;95077.22;;;29.21;26.96
41234;BME280;26968;42.686;23.352;2023-05-24T10:06:34;95044.59;;;29.76;25.88
41234;BME280;26968;42.686;23.352;2023-05-24T10:09:02;95070.19;;;30.07;24.97
41234;BME280;26968;42.686;23.352;2023-05-24T10:11:33;95050.09;;;30.31;24.22
41234;BME280;26968;42.686;23.352;2023-05-24T10:14:03;95068.91;;;30.25;23.87
41234;BME280;26968;42.686;23.352;2023-05-24T10:16:28;95017.00;;;29.56;24.26
41234;BME280;26968;42.686;23.352;2023-05-24T10:18:54;95065.50;;;30.62;23.76
41234;BME280;26968;42.686;23.352;2023-05-24T10:21:22;95054.50;;;30.69;22.64
41234;BME280;26968;42.686;23.352;2023-05-24T10:23:50;95065.94;;;30.98;21.64
41234;BME280;26968;42.686;23.352;2023-05-24T10:26:17;95067.78;;;31.12;21.79
41234;BME280;26968;42.686;23.352;2023-05-24T10:28:46;95018.72;;;31.25;21.85
41234;BME280;26968;42.686;23.352;2023-05-24T10:31:27;95053.78;;;31.71;22.06
41234;BME280;26968;42.686;23.352;2023-05-24T10:33:55;95034.09;;;31.79;22.54
41234;BME280;26968;42.686;23.352;2023-05-24T10:36:22;95015.91;;;31.89;22.75
41234;BME280;26968;42.686;23.352;2023-05-24T10:38:50;95052.38;;;32.16;21.94
41234;BME280;26968;42.686;23.352;2023-05-24T10:41:17;95048.25;;;32.01;21.50
41234;BME280;26968;42.686;23.352;2023-05-24T10:43:45;95046.03;;;32.19;21.36
41234;BME280;26968;42.686;23.352;2023-05-24T10:46:14;95045.06;;;31.79;22.10
41234;BME280;26968;42.686;23.352;2023-05-24T10:48:40;95043.75;;;32.18;23.17
41234;BME280;26968;42.686;23.352;2023-05-24T10:51:28;95039.06;;;32.15;20.93
41234;BME280;26968;42.686;23.352;2023-05-24T10:53:57;95032.78;;;32.14;22.24
41234;BME280;26968;42.686;23.352;2023-05-24T10:56:26;94980.91;;;31.43;21.56
41234;BME280;26968;42.686;23.352;2023-05-24T11:01:32;95022.09;;;32.24;23.35
41234;BME280;26968;42.686;23.352;2023-05-24T11:04:07;95027.16;;;32.25;23.15
41234;BME280;26968;42.686;23.352;2023-05-24T11:06:55;95026.16;;;32.39;22.76
41234;BME280;26968;42.686;23.352;2023-05-24T11:09:21;95034.31;;;32.19;22.30
41234;BME280;26968;42.686;23.352;2023-05-24T11:11:49;95031.69;;;32.35;21.58
41234;BME280;26968;42.686;23.352;2023-05-24T11:14:26;95018.31;;;32.61;21.23
41234;BME280;26968;42.686;23.352;2023-05-24T11:16:53;95025.50;;;32.78;23.41
41234;BME280;26968;42.686;23.352;2023-05-24T11:19:21;95028.81;;;32.89;21.35
41234;BME280;26968;42.686;23.352;2023-05-24T11:21:49;95014.09;;;32.79;21.02
41234;BME280;26968;42.686;23.352;2023-05-24T11:24:19;95027.59;;;32.70;20.51
41234;BME280;26968;42.686;23.352;2023-05-24T11:26:45;95023.91;;;32.80;20.71
41234;BME280;26968;42.686;23.352;2023-05-24T11:29:14;94999.06;;;32.17;20.48
41234;BME280;26968;42.686;23.352;2023-05-24T11:34:17;95014.88;;;33.00;20.65
41234;BME280;26968;42.686;23.352;2023-05-24T11:36:43;94987.75;;;32.82;22.19
41234;BME280;26968;42.686;23.352;2023-05-24T11:39:09;94986.59;;;33.03;20.98
41234;BME280;26968;42.686;23.352;2023-05-24T11:41:38;95004.03;;;32.92;20.38
41234;BME280;26968;42.686;23.352;2023-05-24T11:44:04;94988.19;;;33.20;20.11
41234;BME280;26968;42.686;23.352;2023-05-24T11:46:30;94969.13;;;33.32;21.46
41234;BME280;26968;42.686;23.352;2023-05-24T11:48:56;94977.34;;;33.13;21.43
41234;BME280;26968;42.686;23.352;2023-05-24T11:51:33;94995.94;;;33.45;21.75
41234;BME280;26968;42.686;23.352;2023-05-24T11:53:59;94977.00;;;33.30;20.14
41234;BME280;26968;42.686;23.352;2023-05-24T11:56:26;94956.94;;;33.33;21.03
41234;BME280;26968;42.686;23.352;2023-05-24T12:01:32;94985.66;;;33.09;19.84
41234;BME280;26968;42.686;23.352;2023-05-24T12:03:57;94972.06;;;32.82;19.46
41234;BME280;26968;42.686;23.352;2023-05-24T12:06:22;94980.38;;;32.99;19.08
41234;BME280;26968;42.686;23.352;2023-05-24T12:08:48;94965.03;;;33.01;19.55
41234;BME280;26968;42.686;23.352;2023-05-24T12:11:15;94953.97;;;33.24;20.52
41234;BME280;26968;42.686;23.352;2023-05-24T12:13:41;94960.94;;;33.29;21.84
41234;BME280;26968;42.686;23.352;2023-05-24T12:16:09;94976.66;;;33.28;20.71
41234;BME280;26968;42.686;23.352;2023-05-24T12:18:36;94938.47;;;33.14;21.50
41234;BME280;26968;42.686;23.352;2023-05-24T12:21:07;94970.47;;;33.60;22.07
41234;BME280;26968;42.686;23.352;2023-05-24T12:23:34;94944.84;;;33.47;20.79
41234;BME280;26968;42.686;23.352;2023-05-24T12:26:00;94910.06;;;33.21;20.77
41234;BME280;26968;42.686;23.352;2023-05-24T12:28:26;94958.25;;;33.45;20.79
41234;BME280;26968;42.686;23.352;2023-05-24T12:30:52;94935.53;;;33.25;21.35
41234;BME280;26968;42.686;23.352;2023-05-24T12:33:19;94935.50;;;33.05;20.59
41234;BME280;26968;42.686;23.352;2023-05-24T12:35:45;94949.94;;;33.29;20.95
41234;BME280;26968;42.686;23.352;2023-05-24T12:38:11;94928.97;;;32.99;20.64
41234;BME280;26968;42.686;23.352;2023-05-24T12:40:41;94934.44;;;32.99;20.70
41234;BME280;26968;42.686;23.352;2023-05-24T12:43:07;94948.03;;;33.46;21.37
41234;BME280;26968;42.686;23.352;2023-05-24T12:45:34;94935.81;;;33.11;19.94
41234;BME280;26968;42.686;23.352;2023-05-24T12:48:01;94942.78;;;32.95;22.22
41234;BME280;26968;42.686;23.352;2023-05-24T12:50:29;94887.97;;;33.08;20.87
41234;BME280;26968;42.686;23.352;2023-05-24T12:52:55;94944.03;;;33.30;20.06
41234;BME280;26968;42.686;23.352;2023-05-24T12:55:23;94941.44;;;33.23;20.00
41234;BME280;26968;42.686;23.352;2023-05-24T12:57:51;94898.13;;;32.91;20.34
41234;BME280;26968;42.686;23.352;2023-05-24T13:00:29;94939.94;;;33.75;21.02
41234;BME280;26968;42.686;23.352;2023-05-24T13:02:55;94912.59;;;34.00;20.55
41234;BME280;26968;42.686;23.352;2023-05-24T13:05:23;94940.44;;;34.18;20.68
41234;BME280;26968;42.686;23.352;2023-05-24T13:07:50;94909.50;;;33.82;19.95
41234;BME280;26968;42.686;23.352;2023-05-24T13:10:15;94903.22;;;34.14;19.15
41234;BME280;26968;42.686;23.352;2023-05-24T13:12:41;94853.94;;;33.22;19.19